Aviation Digital Data Service (ADDS)

Output produced by METARs form (2343 UTC 23 May 2022)
found at http://www.aviationweather.gov/metar/data/
 
TAF SCFA 232205Z 2400/2500 17007KT 9999 BKN020 TN13/2410Z TX17/2417Z 
     BECMG 2402/2404 22004KT OVC015 
     BECMG 2406/2408 35007KT BKN020 
     BECMG 2416/2418 21012KT FEW020 
     BECMG 2422/2500 17007KT BKN015
       
TAF SCAR 232202Z 2400/2500 18007KT 9999 OVC025 TN17/2410Z TX19/2418Z 
     BECMG 2403/2405 VRB03KT 
     BECMG 2414/2416 23010KT BKN030 
     BECMG 2418/2420 CAVOK 
     BECMG 2422/2500 20005KT BKN027
       
TAF SCBA 232255Z 2400/2424 29018KT 8000 -SHSN BKN015 OVC030 TNM04/2410Z
TX01/2418Z 
     BECMG 2402/2404 9999 NSW BKN030 
     BECMG 2404/2406 FEW030 
     BECMG 2411/2413 30010KT CAVOK 
     BECMG 2421/2423 VRB02KT
       
TAF SCCF 232204Z 2400/2500 22010KT CAVOK TN01/2410Z TX21/2418Z 
     BECMG 2402/2404 09015KT 
     BECMG 2405/2407 13025KT 
     BECMG 2415/2417 26010KT 
     BECMG 2418/2420 28020KT 
     BECMG 2422/2500 23010KT
       
TAF SCIE 232214Z 2400/2424 24004KT 9999 FEW015 BKN100 TX13/2418Z TN08/2410Z 
     BECMG 2400/2402 28004KT SCT030 BKN060 
     TEMPO 2401/2407 03006KT 6000 -SHRA BKN010 OVC025 
     BECMG 2416/2418 22008KT CAVOK
       
TAF SCAT 232206Z 2400/2500 29007KT 9999 BKN015 TN11/2410Z TX17/2419Z 
     BECMG 2402/2404 36004KT OVC010 
     BECMG 2406/2408 07004KT 
     BECMG 2414/2416 28007KT BKN015 
     BECMG 2418/2420 CAVOK 
     BECMG 2422/2500 23007KT SCT015
       
TAF SCDA 232203Z 2400/2500 20008KT 9999 OVC030 TN15/2410Z TX18/2418Z 
     BECMG 2402/2404 15004KT 
     BECMG 2406/2408 09004KT 
     BECMG 2413/2415 26008KT BKN025 
     BECMG 2418/2420 21013KT CAVOK 
     BECMG 2422/2500 BKN027
       
TAF COR SCSE 232212Z 2400/2424 28010KT CAVOK TX18/2418Z TN10/2410Z 
     BECMG 2400/2402 29004KT 
     BECMG 2402/2404 11004KT SCT008 BKN012 
     BECMG 2415/2417 29010KT CAVOK
       
TAF SCTE 232255Z 2400/2424 34010KT 8000 SHRA BKN030 BKN040 TN03/2410Z TX09/2419Z

     BECMG 2404/2406 9999 NSW BKN040 
     BECMG 2410/2412 5000 RA BKN020 OVC030 
     BECMG 2416/2418 29007KT 8000 SHRA BKN030 
     BECMG 2420/2422 VRB02KT
       
TAF SCCI 232218Z 2400/2500 27018KT 9000 -SHRASN -SHRA SCT030 TNM01/2411Z
TX05/2418Z 
     TEMPO 2400/2409 4000 -SHSN SCT012 BKN020 
     BECMG 2404/2406 22015KT 
     BECMG 2409/2411 9999 NSW FEW030 
     TEMPO 2417/2500 25025KT
       
TAF SCEL 232214Z 2400/2424 20006KT 9999 SCT100 BKN160 TX19/2418Z TN10/2410Z 
     BECMG 2402/2404 16004KT 8000 
     TEMPO 2409/2412 VRB02KT 4000 BR 
     BECMG 2415/2417 19008KT CAVOK 
     TEMPO 2419/2500 FEW120 BKN200
       
TAF SCVM 232212Z 2400/2424 33004KT CAVOK TX19/2418Z TN10/2410Z 
     TEMPO 2402/2410 11004KT 5000 BR SCT015 BKN040 BKN100 
     BECMG 2415/2417 30010KT